Sunbury, United Kingdom
Current Conditions -  °F | °C
As of 3:50 PM on Sunday 23 Nov 2014 (Local Time) from EGLL Reporting Station
Scattered Clouds Scattered Clouds  
Wind Chill: 46°   Ceiling: Unl
Heat Index: 46°   Visibility: 6mi
Dew Point: 43°   Wind: 3mph
Humidity: 87%   Direction: NA
Pressure: 30.03"   Gusts: NA
Location:  51.41°N, 0.41°W
Report Text: EGLL 231550Z VRB03KT 9999 FEW012 SCT044 08/06 Q1017 NOSIG
Loading
Personal Weather Stations






























Interactive Weather Map New forecast layout! Learn more

10-Day Weather Forecast

Advertisements
Track Severe Weather on mobile